createdAt,value
2018-04-19T00:00:58.680Z,96149.75
2018-04-19T00:03:27.025Z,96147.31
2018-04-19T00:05:55.537Z,96148.86
2018-04-19T00:08:23.947Z,96151.53
2018-04-19T00:10:52.329Z,96148.09
2018-04-19T00:13:21.087Z,96151.59
2018-04-19T00:15:49.250Z,96150.43
2018-04-19T00:18:17.838Z,96153.80
2018-04-19T00:20:46.284Z,96153.05
2018-04-19T00:23:14.637Z,96147.05
2018-04-19T00:25:43.076Z,96145.28
2018-04-19T00:28:11.383Z,96146.70
2018-04-19T00:30:39.626Z,96152.48
2018-04-19T00:33:08.408Z,96155.59
2018-04-19T00:35:37.163Z,96161.75
2018-04-19T00:38:05.690Z,96160.50
2018-04-19T00:40:33.961Z,96166.69
2018-04-19T00:43:02.351Z,96164.38
2018-04-19T00:45:30.706Z,96166.13
2018-04-19T00:47:59.192Z,96169.41
2018-04-19T00:50:27.709Z,96166.66
2018-04-19T00:53:07.893Z,96161.43
2018-04-19T00:55:37.423Z,96152.14
2018-04-19T00:58:06.008Z,96159.30
2018-04-19T01:00:34.560Z,96166.09
2018-04-19T01:03:03.085Z,96163.19
2018-04-19T01:05:31.957Z,96160.78
2018-04-19T01:08:00.399Z,96152.69
2018-04-19T01:10:28.630Z,96149.61
2018-04-19T01:12:57.126Z,96147.36
2018-04-19T01:15:25.751Z,96153.77
2018-04-19T01:17:54.182Z,96153.78
2018-04-19T01:20:22.840Z,96154.55
2018-04-19T01:22:51.084Z,96159.70
2018-04-19T01:25:19.676Z,96155.05
2018-04-19T01:27:48.089Z,96156.11
2018-04-19T01:30:16.374Z,96151.00
2018-04-19T01:32:45.041Z,96153.44
2018-04-19T01:35:13.830Z,96152.19
2018-04-19T01:37:42.044Z,96148.57
2018-04-19T01:40:10.719Z,96147.02
2018-04-19T01:42:38.961Z,96152.97
2018-04-19T01:45:07.249Z,96148.12
2018-04-19T01:47:35.723Z,96146.27
2018-04-19T01:50:03.907Z,96139.95
2018-04-19T01:52:32.381Z,96147.33
2018-04-19T01:55:01.163Z,96140.59
2018-04-19T01:57:29.737Z,96150.16
2018-04-19T01:59:58.133Z,96146.30
2018-04-19T02:02:26.807Z,96146.66
2018-04-19T02:04:55.121Z,96147.84
2018-04-19T02:07:23.873Z,96144.89
2018-04-19T02:09:52.141Z,96144.55
2018-04-19T02:12:20.433Z,96146.34
2018-04-19T02:14:48.962Z,96149.83
2018-04-19T02:17:17.482Z,96151.32
2018-04-19T02:19:45.847Z,96148.63
2018-04-19T02:22:14.138Z,96148.72
2018-04-19T02:24:42.336Z,96147.18
2018-04-19T02:27:10.586Z,96146.36
2018-04-19T02:29:39.376Z,96152.41
2018-04-19T02:32:07.661Z,96152.75
2018-04-19T02:34:36.234Z,96157.39
2018-04-19T02:37:04.610Z,96154.64
2018-04-19T02:39:32.997Z,96158.83
2018-04-19T02:42:01.573Z,96160.13
2018-04-19T02:44:30.002Z,96154.33
2018-04-19T02:46:58.438Z,96165.63
2018-04-19T02:49:27.140Z,96167.87
2018-04-19T02:51:55.555Z,96164.97
2018-04-19T02:54:24.038Z,96167.78
2018-04-19T02:56:52.863Z,96166.72
2018-04-19T02:59:22.537Z,96166.55
2018-04-19T03:01:50.860Z,96172.02
2018-04-19T03:04:19.186Z,96167.42
2018-04-19T03:06:47.722Z,96169.00
2018-04-19T03:09:16.605Z,96174.25
2018-04-19T03:11:45.273Z,96172.75
2018-04-19T03:14:13.372Z,96170.00
2018-04-19T03:16:41.824Z,96174.55
2018-04-19T03:19:10.276Z,96169.63
2018-04-19T03:21:38.685Z,96170.34
2018-04-19T03:24:06.979Z,96175.59
2018-04-19T03:26:35.544Z,96170.61
2018-04-19T03:29:04.137Z,96177.67
2018-04-19T03:31:32.408Z,96183.56
2018-04-19T03:34:00.897Z,96183.37
2018-04-19T03:36:29.460Z,96187.98
2018-04-19T03:38:57.830Z,96182.05
2018-04-19T03:41:26.552Z,96177.55
2018-04-19T03:43:55.222Z,96178.09
2018-04-19T03:46:23.806Z,96183.36
2018-04-19T03:48:52.072Z,96180.20
2018-04-19T03:51:20.602Z,96178.58
2018-04-19T03:53:48.731Z,96185.52
2018-04-19T03:56:17.222Z,96182.02
2018-04-19T03:58:45.996Z,96187.12
2018-04-19T04:01:15.093Z,96192.17
2018-04-19T04:03:43.572Z,96190.98
2018-04-19T04:06:12.066Z,96195.69
2018-04-19T04:08:40.634Z,96202.77
2018-04-19T04:11:09.321Z,96205.69
2018-04-19T04:13:37.726Z,96199.88
2018-04-19T04:16:06.282Z,96202.77
2018-04-19T04:18:46.309Z,96201.73
2018-04-19T04:21:20.103Z,96207.41
2018-04-19T04:23:54.360Z,96205.30
2018-04-19T04:26:22.642Z,96206.24
2018-04-19T04:28:51.837Z,96210.16
2018-04-19T04:31:20.270Z,96206.43
2018-04-19T04:33:49.006Z,96204.76
2018-04-19T04:36:17.398Z,96207.35
2018-04-19T04:38:45.663Z,96199.43
2018-04-19T04:41:14.221Z,96204.03
2018-04-19T04:43:42.437Z,96202.92
2018-04-19T04:46:11.081Z,96198.11
2018-04-19T04:48:39.429Z,96197.45
2018-04-19T04:51:07.705Z,96201.80
2018-04-19T04:53:36.288Z,96200.59
2018-04-19T04:56:04.808Z,96193.33
2018-04-19T04:58:33.282Z,96196.47
2018-04-19T05:01:01.766Z,96196.06
2018-04-19T05:03:29.944Z,96199.50
2018-04-19T05:05:58.428Z,96194.81
2018-04-19T05:08:26.766Z,96196.09
2018-04-19T05:10:55.302Z,96198.90
2018-04-19T05:13:23.721Z,96207.97
2018-04-19T05:15:52.263Z,96199.19
2018-04-19T05:18:20.513Z,96207.41
2018-04-19T05:20:48.906Z,96203.48
2018-04-19T05:23:17.061Z,96199.67
2018-04-19T05:25:45.451Z,96196.27
2018-04-19T05:28:13.932Z,96199.47
2018-04-19T05:30:42.598Z,96199.33
2018-04-19T05:33:10.894Z,96203.25
2018-04-19T05:35:39.482Z,96204.54
2018-04-19T05:38:08.047Z,96202.19
2018-04-19T05:40:36.395Z,96201.26
2018-04-19T05:43:04.908Z,96203.25
2018-04-19T05:45:33.292Z,96214.88
2018-04-19T05:48:01.933Z,96214.38
2018-04-19T05:50:30.548Z,96209.07
2018-04-19T05:52:59.234Z,96205.44
2018-04-19T05:55:28.221Z,96205.10
2018-04-19T05:57:56.696Z,96198.36
2018-04-19T06:00:24.935Z,96197.70
2018-04-19T06:02:53.780Z,96189.28
2018-04-19T06:05:22.349Z,96183.33
2018-04-19T06:07:50.789Z,96181.93
2018-04-19T06:10:19.513Z,96179.99
2018-04-19T06:12:48.092Z,96181.19
2018-04-19T06:15:16.910Z,96176.58
2018-04-19T06:17:45.435Z,96173.72
2018-04-19T06:20:14.138Z,96164.95
2018-04-19T06:22:42.857Z,96165.99
2018-04-19T06:25:11.422Z,96160.12
2018-04-19T06:27:39.832Z,96162.06
2018-04-19T06:30:08.402Z,96167.52
2018-04-19T06:32:36.971Z,96168.59
2018-04-19T06:35:05.275Z,96168.28
2018-04-19T06:37:33.637Z,96172.59
2018-04-19T06:40:01.992Z,96173.38
2018-04-19T06:42:30.395Z,96166.95
2018-04-19T06:44:58.952Z,96173.22
2018-04-19T06:47:27.538Z,96170.22
2018-04-19T06:49:55.835Z,96177.48
2018-04-19T06:52:24.403Z,96174.04
2018-04-19T06:54:52.790Z,96177.69
2018-04-19T06:57:21.181Z,96169.14
2018-04-19T06:59:49.190Z,96166.30
2018-04-19T07:02:17.712Z,96183.28
2018-04-19T07:04:46.187Z,96177.06
2018-04-19T07:07:14.144Z,96176.56
2018-04-19T07:09:42.182Z,96171.52
2018-04-19T07:12:10.259Z,96168.27
2018-04-19T07:14:38.240Z,96167.97
2018-04-19T07:17:06.582Z,96171.28
2018-04-19T07:19:34.593Z,96170.31
2018-04-19T07:22:02.581Z,96162.57
2018-04-19T07:24:30.587Z,96169.41
2018-04-19T07:26:58.653Z,96156.86
2018-04-19T07:29:26.658Z,96157.38
2018-04-19T07:31:54.825Z,96158.38
2018-04-19T07:34:22.901Z,96158.30
2018-04-19T07:36:50.978Z,96147.66
2018-04-19T07:39:19.065Z,96146.22
2018-04-19T07:41:47.062Z,96141.55
2018-04-19T07:44:15.064Z,96137.86
2018-04-19T07:46:43.140Z,96142.27
2018-04-19T07:49:11.154Z,96133.09
2018-04-19T07:51:39.249Z,96129.45
2018-04-19T07:54:07.257Z,96133.56
2018-04-19T07:56:35.236Z,96131.25
2018-04-19T07:59:03.263Z,96132.92
2018-04-19T08:01:31.278Z,96133.12
2018-04-19T08:03:59.333Z,96131.63
2018-04-19T08:06:27.387Z,96133.62
2018-04-19T08:08:55.398Z,96128.56
2018-04-19T08:11:23.414Z,96127.87
2018-04-19T08:13:51.622Z,96123.25
2018-04-19T08:16:19.666Z,96118.05
2018-04-19T08:18:48.143Z,96118.25
2018-04-19T08:21:16.189Z,96113.73
2018-04-19T08:23:44.242Z,96112.08
2018-04-19T08:26:12.372Z,96108.59
2018-04-19T08:28:40.355Z,96107.05
2018-04-19T08:31:08.438Z,96100.08
2018-04-19T08:33:36.479Z,96108.06
2018-04-19T08:36:04.461Z,96096.85
2018-04-19T08:38:32.489Z,96097.06
2018-04-19T08:41:00.473Z,96096.28
2018-04-19T08:43:28.489Z,96088.33
2018-04-19T08:45:56.590Z,96087.64
2018-04-19T08:48:24.629Z,96083.61
2018-04-19T08:50:53.244Z,96076.10
2018-04-19T08:53:21.659Z,96075.19
2018-04-19T08:55:49.710Z,96065.38
2018-04-19T08:58:17.755Z,96061.98
2018-04-19T09:00:45.783Z,96060.98
2018-04-19T09:03:13.801Z,96059.94
2018-04-19T09:05:41.827Z,96046.98
2018-04-19T09:08:09.865Z,96051.25
2018-04-19T09:10:37.913Z,96054.16
2018-04-19T09:13:05.919Z,96041.02
2018-04-19T09:15:33.891Z,96037.65
2018-04-19T09:18:01.948Z,96035.19
2018-04-19T09:20:30.305Z,96035.84
2018-04-19T09:22:58.375Z,96032.97
2018-04-19T09:25:26.403Z,96038.35
2018-04-19T09:27:54.415Z,96033.17
2018-04-19T09:30:23.144Z,96037.75
2018-04-19T09:32:51.668Z,96035.10
2018-04-19T09:35:19.955Z,96031.66
2018-04-19T09:37:48.031Z,96033.74
2018-04-19T09:40:16.055Z,96040.45
2018-04-19T09:42:44.019Z,96032.45
2018-04-19T09:45:12.029Z,96028.06
2018-04-19T09:47:40.009Z,96023.88
2018-04-19T09:50:08.078Z,96022.72
2018-04-19T09:52:36.088Z,96018.25
2018-04-19T09:55:04.064Z,96017.70
2018-04-19T09:57:32.047Z,96016.02
2018-04-19T10:00:00.087Z,96015.50
2018-04-19T10:02:29.012Z,96010.32
2018-04-19T10:05:03.069Z,96012.48
2018-04-19T10:07:31.078Z,96009.04
2018-04-19T10:09:59.079Z,96003.56
2018-04-19T10:12:27.123Z,96001.11
2018-04-19T10:14:55.156Z,95998.41
2018-04-19T10:17:23.213Z,95998.22
2018-04-19T10:19:51.246Z,95991.80
2018-04-19T10:22:19.732Z,95990.23
2018-04-19T10:24:47.741Z,95987.98
2018-04-19T10:27:15.747Z,95993.48
2018-04-19T10:29:43.771Z,95993.33
2018-04-19T10:32:11.777Z,95989.37
2018-04-19T10:34:39.725Z,95988.78
2018-04-19T10:37:07.757Z,95975.75
2018-04-19T10:39:35.898Z,95973.84
2018-04-19T10:42:04.065Z,95968.63
2018-04-19T10:44:32.052Z,95967.03
2018-04-19T10:47:00.142Z,95943.72
2018-04-19T10:49:28.131Z,95964.88
2018-04-19T10:51:56.203Z,95961.37
2018-04-19T10:54:24.132Z,95961.97
2018-04-19T10:56:52.151Z,95961.31
2018-04-19T10:59:20.282Z,95964.76
2018-04-19T11:01:48.342Z,95954.89
2018-04-19T11:04:16.340Z,95952.08
2018-04-19T11:06:44.402Z,95946.06
2018-04-19T11:09:12.425Z,95938.55
2018-04-19T11:11:40.421Z,95935.59
2018-04-19T11:14:08.419Z,95927.33
2018-04-19T11:16:36.436Z,95926.42
2018-04-19T11:19:04.547Z,95860.47
2018-04-19T11:21:32.469Z,95913.69
2018-04-19T11:24:00.704Z,95912.70
2018-04-19T11:26:28.744Z,95912.09
2018-04-19T11:28:56.816Z,95911.03
2018-04-19T11:31:24.849Z,95904.73
2018-04-19T11:33:52.950Z,95908.03
2018-04-19T11:36:20.970Z,95897.72
2018-04-19T11:38:48.961Z,95893.16
2018-04-19T11:41:17.025Z,95890.91
2018-04-19T11:43:44.999Z,95889.42
2018-04-19T11:46:12.991Z,95884.36
2018-04-19T11:48:41.003Z,95878.08
2018-04-19T11:51:09.037Z,95874.42
2018-04-19T11:53:37.181Z,95864.20
2018-04-19T11:56:05.204Z,95864.66
2018-04-19T11:58:33.181Z,95863.64
2018-04-19T12:01:01.237Z,95866.26
2018-04-19T12:03:29.299Z,95864.86
2018-04-19T12:05:57.347Z,95859.16
2018-04-19T12:08:25.387Z,95857.86
2018-04-19T12:10:53.459Z,95847.54
2018-04-19T12:13:21.425Z,95848.30
2018-04-19T12:15:49.528Z,95844.30
2018-04-19T12:18:17.605Z,95848.67
2018-04-19T12:20:45.678Z,95837.11
2018-04-19T12:23:13.760Z,95839.27
2018-04-19T12:25:41.817Z,95837.48
2018-04-19T12:28:09.783Z,95838.38
2018-04-19T12:30:37.790Z,95831.36
2018-04-19T12:33:05.800Z,95835.36
2018-04-19T12:35:33.901Z,95824.61
2018-04-19T12:38:01.981Z,95829.91
2018-04-19T12:40:29.949Z,95829.84
2018-04-19T12:42:57.959Z,95829.27
2018-04-19T12:45:25.971Z,95832.44
2018-04-19T12:47:54.036Z,95827.66
2018-04-19T12:50:22.059Z,95822.98
2018-04-19T12:52:50.054Z,95825.86
2018-04-19T12:55:18.084Z,95820.42
2018-04-19T12:57:46.126Z,95811.58
2018-04-19T13:00:14.176Z,95806.84
2018-04-19T13:02:42.197Z,95803.05
2018-04-19T13:05:10.259Z,95799.41
2018-04-19T13:07:38.290Z,95800.31
2018-04-19T13:10:06.301Z,95804.86
2018-04-19T13:12:34.265Z,95794.77
2018-04-19T13:15:02.289Z,95792.77
2018-04-19T13:17:30.281Z,95784.33
2018-04-19T13:19:58.700Z,95775.55
2018-04-19T13:22:27.080Z,95779.89
2018-04-19T13:24:55.161Z,95777.72
2018-04-19T13:27:23.517Z,95770.47
2018-04-19T13:29:51.584Z,95766.95
2018-04-19T13:32:19.602Z,95770.14
2018-04-19T13:34:47.630Z,95765.78
2018-04-19T13:37:15.675Z,95752.17
2018-04-19T13:39:43.770Z,95748.99
2018-04-19T13:42:11.832Z,95744.16
2018-04-19T13:44:39.855Z,95738.19
2018-04-19T13:47:07.921Z,95724.23
2018-04-19T13:49:36.028Z,95719.81
2018-04-19T13:52:04.125Z,95720.89
2018-04-19T13:54:32.162Z,95713.98
2018-04-19T13:57:00.229Z,95701.55
2018-04-19T13:59:28.299Z,95704.72
2018-04-19T14:01:56.404Z,95702.11
2018-04-19T14:04:24.422Z,95698.84
2018-04-19T14:06:52.390Z,95702.45
2018-04-19T14:09:20.464Z,95697.74
2018-04-19T14:11:48.459Z,95697.67
2018-04-19T14:14:16.447Z,95694.45
2018-04-19T14:16:44.520Z,95690.62
2018-04-19T14:19:12.518Z,95688.92
2018-04-19T14:21:40.542Z,95680.64
2018-04-19T14:24:08.603Z,95675.09
2018-04-19T14:26:36.638Z,95675.77
2018-04-19T14:29:05.738Z,95670.30
2018-04-19T14:31:33.748Z,95669.23
2018-04-19T14:34:01.734Z,95661.48
2018-04-19T14:36:29.952Z,95576.91
2018-04-19T14:38:58.086Z,95663.05
2018-04-19T14:41:27.230Z,95661.67
2018-04-19T14:43:55.265Z,95656.69
2018-04-19T14:46:23.357Z,95648.52
2018-04-19T14:48:51.446Z,95651.02
2018-04-19T14:51:19.547Z,95649.93
2018-04-19T14:53:47.537Z,95652.17
2018-04-19T14:56:15.557Z,95643.33
2018-04-19T14:58:43.536Z,95644.41
2018-04-19T15:01:11.918Z,95636.91
2018-04-19T15:03:41.633Z,95634.11
2018-04-19T15:06:09.641Z,95642.63
2018-04-19T15:08:37.617Z,95644.11
2018-04-19T15:11:05.573Z,95634.73
2018-04-19T15:13:33.590Z,95633.59
2018-04-19T15:16:01.651Z,95626.19
2018-04-19T15:18:29.612Z,95628.01
2018-04-19T15:20:57.586Z,95627.28
2018-04-19T15:23:25.754Z,95627.03
2018-04-19T15:25:53.989Z,95619.81
2018-04-19T15:28:22.095Z,95617.04
2018-04-19T15:30:50.460Z,95617.11
2018-04-19T15:33:18.849Z,95618.11
2018-04-19T15:35:47.575Z,95612.98
2018-04-19T15:38:15.865Z,95609.80
2018-04-19T15:40:44.214Z,95619.96
2018-04-19T15:43:12.248Z,95611.75
2018-04-19T15:45:40.294Z,95605.64
2018-04-19T15:48:08.579Z,95600.42
2018-04-19T15:50:37.122Z,95602.74
2018-04-19T15:53:05.625Z,95596.56
2018-04-19T15:55:33.947Z,95597.48
2018-04-19T15:58:02.671Z,95586.48
2018-04-19T16:00:30.691Z,95581.63
2018-04-19T16:02:58.697Z,95581.28
2018-04-19T16:05:26.754Z,95582.75
2018-04-19T16:07:55.160Z,95584.59
2018-04-19T16:10:23.629Z,95577.64
2018-04-19T16:12:52.317Z,95574.14
2018-04-19T16:15:20.779Z,95572.37
2018-04-19T16:17:48.812Z,95578.20
2018-04-19T16:20:16.825Z,95576.94
2018-04-19T16:22:44.855Z,95574.66
2018-04-19T16:25:12.943Z,95571.13
2018-04-19T16:27:41.407Z,95567.69
2018-04-19T16:30:09.756Z,95564.70
2018-04-19T16:32:38.626Z,95567.86
2018-04-19T16:35:07.414Z,95563.97
2018-04-19T16:37:35.718Z,95566.17
2018-04-19T16:40:05.200Z,95565.94
2018-04-19T16:42:33.739Z,95560.91
2018-04-19T16:45:02.129Z,95568.27
2018-04-19T16:47:30.542Z,95562.62
2018-04-19T16:49:59.151Z,95567.98
2018-04-19T16:52:27.615Z,95563.64
2018-04-19T16:54:55.971Z,95482.91
2018-04-19T16:57:24.263Z,95570.62
2018-04-19T16:59:52.673Z,95580.52
2018-04-19T17:02:20.814Z,95572.97
2018-04-19T17:04:49.273Z,95570.77
2018-04-19T17:07:17.674Z,95576.33
2018-04-19T17:09:46.034Z,95571.69
2018-04-19T17:12:14.150Z,95575.73
2018-04-19T17:14:42.688Z,95554.94
2018-04-19T17:17:11.161Z,95573.55
2018-04-19T17:19:39.685Z,95569.91
2018-04-19T17:22:07.799Z,95572.59
2018-04-19T17:24:35.811Z,95575.31
2018-04-19T17:27:04.462Z,95576.34
2018-04-19T17:29:32.790Z,95581.50
2018-04-19T17:32:01.298Z,95587.64
2018-04-19T17:34:30.216Z,95584.52
2018-04-19T17:36:58.815Z,95591.41
2018-04-19T17:39:27.355Z,95591.27
2018-04-19T17:41:55.895Z,95592.79
2018-04-19T17:44:24.499Z,95593.02
2018-04-19T17:46:53.550Z,95593.42
2018-04-19T17:49:21.859Z,95597.83
2018-04-19T17:51:50.516Z,95598.67
2018-04-19T17:54:18.485Z,95598.03
2018-04-19T17:56:46.590Z,95595.34
2018-04-19T17:59:14.991Z,95595.33
2018-04-19T18:01:43.516Z,95599.87
2018-04-19T18:04:11.885Z,95598.73
2018-04-19T18:06:40.316Z,95606.47
2018-04-19T18:09:08.866Z,95606.90
2018-04-19T18:11:37.221Z,95613.31
2018-04-19T18:14:05.722Z,95593.70
2018-04-19T18:16:34.084Z,95607.52
2018-04-19T18:19:02.665Z,95607.87
2018-04-19T18:21:31.193Z,95613.14
2018-04-19T18:23:59.625Z,95612.52
2018-04-19T18:26:28.022Z,95612.86
2018-04-19T18:28:56.198Z,95608.13
2018-04-19T18:31:24.722Z,95605.86
2018-04-19T18:33:53.337Z,95611.47
2018-04-19T18:36:21.899Z,95613.27
2018-04-19T18:38:50.417Z,95615.66
2018-04-19T18:41:18.682Z,95616.19
2018-04-19T18:43:47.432Z,95619.20
2018-04-19T18:46:15.862Z,95625.12
2018-04-19T18:48:44.434Z,95625.14
2018-04-19T18:51:12.824Z,95632.33
2018-04-19T18:53:41.291Z,95638.70
2018-04-19T18:56:09.436Z,95626.78
2018-04-19T18:58:38.199Z,95623.51
2018-04-19T19:01:06.938Z,95621.09
2018-04-19T19:03:35.363Z,95618.91
2018-04-19T19:06:03.605Z,95623.09
2018-04-19T19:08:32.171Z,95621.84
2018-04-19T19:11:00.924Z,95628.80
2018-04-19T19:13:29.581Z,95625.73
2018-04-19T19:16:12.732Z,95629.08
2018-04-19T19:18:52.864Z,95627.95
2018-04-19T19:21:21.312Z,95621.60
2018-04-19T19:23:49.851Z,95619.81
2018-04-19T19:26:18.176Z,95620.22
2018-04-19T19:28:46.604Z,95619.26
2018-04-19T19:31:14.929Z,95618.63
2018-04-19T19:33:43.597Z,95621.66
2018-04-19T19:36:11.825Z,95617.52
2018-04-19T19:38:40.379Z,95622.24
2018-04-19T19:41:08.729Z,95618.44
2018-04-19T19:43:36.953Z,95625.87
2018-04-19T19:46:05.555Z,95622.88
2018-04-19T19:48:34.137Z,95620.97
2018-04-19T19:51:02.853Z,95614.58
2018-04-19T19:53:31.338Z,95612.05
2018-04-19T19:55:59.666Z,95623.25
2018-04-19T19:58:27.894Z,95618.75
2018-04-19T20:00:56.398Z,95618.75
2018-04-19T20:03:25.050Z,95614.89
2018-04-19T20:05:53.359Z,95609.36
2018-04-19T20:08:22.098Z,95609.22
2018-04-19T20:10:50.511Z,95614.80
2018-04-19T20:13:18.864Z,95614.33
2018-04-19T20:15:47.466Z,95602.52
2018-04-19T20:18:15.631Z,95608.88
2018-04-19T20:20:43.976Z,95601.65
2018-04-19T20:23:12.711Z,95600.56
2018-04-19T20:25:41.164Z,95598.75
2018-04-19T20:28:09.352Z,95600.34
2018-04-19T20:30:37.353Z,95598.17
2018-04-19T20:33:05.413Z,95598.67
2018-04-19T20:35:33.390Z,95595.48
2018-04-19T20:38:02.045Z,95595.04
2018-04-19T20:40:30.770Z,95588.34
2018-04-19T20:42:59.475Z,95588.20
2018-04-19T20:45:28.015Z,95587.33
2018-04-19T20:47:56.366Z,95590.16
2018-04-19T20:50:24.773Z,95586.74
2018-04-19T20:52:53.542Z,95589.78
2018-04-19T20:55:22.073Z,95587.77
2018-04-19T20:57:50.509Z,95586.29
2018-04-19T21:00:18.976Z,95587.04
2018-04-19T21:02:47.522Z,95576.56
2018-04-19T21:05:15.950Z,95583.95
2018-04-19T21:07:44.804Z,95589.61
2018-04-19T21:10:13.320Z,95584.09
2018-04-19T21:12:41.615Z,95589.12
2018-04-19T21:15:10.472Z,95591.98
2018-04-19T21:17:39.019Z,95592.48
2018-04-19T21:20:07.451Z,95588.98
2018-04-19T21:22:36.117Z,95594.94
2018-04-19T21:25:04.700Z,95595.53
2018-04-19T21:27:33.222Z,95592.48
2018-04-19T21:30:01.763Z,95601.05
2018-04-19T21:32:29.976Z,95591.09
2018-04-19T21:34:58.420Z,95595.17
2018-04-19T21:37:26.811Z,95601.81
2018-04-19T21:39:55.285Z,95593.38
2018-04-19T21:42:23.822Z,95586.08
2018-04-19T21:44:52.333Z,95592.95
2018-04-19T21:47:20.828Z,95592.91
2018-04-19T21:49:49.200Z,95588.78
2018-04-19T21:52:17.552Z,95587.23
2018-04-19T21:54:46.020Z,95586.66
2018-04-19T21:57:14.451Z,95587.48
2018-04-19T21:59:42.894Z,95590.33
2018-04-19T22:02:11.410Z,95588.05
2018-04-19T22:04:40.075Z,95586.59
2018-04-19T22:07:08.323Z,95593.46
2018-04-19T22:09:37.071Z,95588.93
2018-04-19T22:12:05.618Z,95580.50
2018-04-19T22:14:33.910Z,95580.84
2018-04-19T22:17:02.581Z,95584.02
2018-04-19T22:19:30.946Z,95576.59
2018-04-19T22:21:59.349Z,95576.70
2018-04-19T22:24:27.681Z,95576.40
2018-04-19T22:26:56.105Z,95571.59
2018-04-19T22:29:24.574Z,95572.10
2018-04-19T22:31:52.866Z,95571.22
2018-04-19T22:34:21.112Z,95571.45
2018-04-19T22:36:49.418Z,95567.08
2018-04-19T22:39:17.994Z,95569.68
2018-04-19T22:41:46.665Z,95571.55
2018-04-19T22:44:15.975Z,95571.36
2018-04-19T22:46:44.651Z,95569.88
2018-04-19T22:49:13.167Z,95565.81
2018-04-19T22:51:41.310Z,95565.98
2018-04-19T22:54:09.594Z,95560.17
2018-04-19T22:56:38.173Z,95557.21
2018-04-19T22:59:06.646Z,95558.34
2018-04-19T23:01:34.925Z,95561.94
2018-04-19T23:04:03.831Z,95562.14
2018-04-19T23:06:32.500Z,95557.67
2018-04-19T23:09:01.046Z,95556.56
2018-04-19T23:11:29.782Z,95554.41
2018-04-19T23:13:58.582Z,95546.70
2018-04-19T23:16:26.826Z,95543.58
2018-04-19T23:18:55.118Z,95540.31
2018-04-19T23:21:23.582Z,95535.37
2018-04-19T23:23:51.774Z,95534.13
2018-04-19T23:26:20.877Z,95534.73
2018-04-19T23:28:49.326Z,95526.05
2018-04-19T23:31:17.776Z,95524.27
2018-04-19T23:33:46.567Z,95521.27
2018-04-19T23:36:14.881Z,95513.09
2018-04-19T23:38:43.353Z,95508.77
2018-04-19T23:41:11.840Z,95508.47
2018-04-19T23:43:40.221Z,95502.16
2018-04-19T23:46:08.556Z,95500.51
2018-04-19T23:48:36.867Z,95502.39
2018-04-19T23:51:05.258Z,95495.36
2018-04-19T23:53:33.837Z,95496.36
2018-04-19T23:56:02.515Z,95488.42
2018-04-19T23:58:30.794Z,95481.70
